Armada, MI (48005)

2:24 AM EST on December 10, 2016 (GMT -0500)
| | Change Station

Elev -9999 ft 0.00 °N, 0.00 °E | Updated 10 minutes ago

Overcast
Overcast
73 °F
Feels Like 73 °F
N
6
Wind Variable Wind from SSW
Gusts mph

Today
High -- | Low -- °F
--% Chance of Precip.
Yesterday
High -- | Low -- °F
Precip. -- in
Pressure 30.41 in
Visibility 10.0 miles
Clouds Overcast 6000 ft
Dew Point 66 °F
Humidity 80%
Rainfall --
Snow Depth Not available.
7:51 AM 4:57 PM
Waxing Gibbous, 81% visible
METAR KMTC 100658Z AUTO 27008KT 10SM OVC060 M04/M09 A3037 RMK AO2 SLP296 T10381086
Pressure 30.41 in
Visibility 10.0 miles
Clouds Overcast 6000 ft
Dew Point 66 °F
Humidity 80%
Rainfall --
Snow Depth Not available.
7:51 AM 4:57 PM
Waxing Gibbous, 81% visible
METAR KMTC 100658Z AUTO 27008KT 10SM OVC060 M04/M09 A3037 RMK AO2 SLP296 T10381086

10-Day Weather Forecast

Almanac

Astronomy

Dec. 10, 2016 Rise Set
Actual Time
Civil Twilight
Nautical Twilight
Astronomical Twilight
Moon
Length of Visible Light
Length of Day
Tomorrow will be .
, % of the Moon is Illuminated

Today's Extremes

State Highs State Lows

Community

WunderPhotos

Upload Photos

1,956,527 photos uploaded!

WunderBlog® & News

Nearby

Air Quality

  Air Quality AQ Index Pollutant
Not available.

Snow Depth

Station Depth Elevation

Earthquake Activity

City Distance Mag. Time & Date
Minimum magnitude displayed is 2.5.

Coastal Water Temperatures

Place Temperature

Stations

Nearby Weather Stations

Station Location Temp. Windchill Dew Point Humidity Wind Precip. Elev Updated Type
                   

Watches & Warnings

There are currently no watches in effect.